sensor_id;sensor_type;location;lat;lon;timestamp;pressure;altitude;pressure_sealevel;temperature;humidity
39954;BME280;25631;51.516;-0.470;2024-03-29T00:00:21;98093.84;;;6.97;41.05
39954;BME280;25631;51.516;-0.470;2024-03-29T00:02:58;98097.28;;;6.68;40.91
39954;BME280;25631;51.516;-0.470;2024-03-29T00:05:34;98100.69;;;6.69;40.79
39954;BME280;25631;51.516;-0.470;2024-03-29T00:08:11;98102.23;;;6.91;40.79
39954;BME280;25631;51.516;-0.470;2024-03-29T00:10:47;98098.96;;;6.88;40.87
39954;BME280;25631;51.516;-0.470;2024-03-29T00:13:24;98103.46;;;6.62;40.91
39954;BME280;25631;51.516;-0.470;2024-03-29T00:16:00;98107.24;;;6.69;40.96
39954;BME280;25631;51.516;-0.470;2024-03-29T00:18:37;98112.39;;;6.90;40.90
39954;BME280;25631;51.516;-0.470;2024-03-29T00:21:13;98115.27;;;7.00;40.84
39954;BME280;25631;51.516;-0.470;2024-03-29T00:23:50;98116.00;;;6.76;40.94
39954;BME280;25631;51.516;-0.470;2024-03-29T00:26:26;98113.16;;;6.73;41.00
39954;BME280;25631;51.516;-0.470;2024-03-29T00:29:02;98109.98;;;6.99;41.21
39954;BME280;25631;51.516;-0.470;2024-03-29T00:31:39;98110.51;;;6.66;41.54
39954;BME280;25631;51.516;-0.470;2024-03-29T00:34:15;98108.26;;;6.83;41.64
39954;BME280;25631;51.516;-0.470;2024-03-29T00:36:51;98106.53;;;6.69;42.09
39954;BME280;25631;51.516;-0.470;2024-03-29T00:39:28;98105.46;;;6.86;41.71
39954;BME280;25631;51.516;-0.470;2024-03-29T00:42:04;98107.04;;;7.00;41.67
39954;BME280;25631;51.516;-0.470;2024-03-29T00:44:41;98106.51;;;6.94;42.04
39954;BME280;25631;51.516;-0.470;2024-03-29T00:47:17;98109.05;;;6.88;41.97
39954;BME280;25631;51.516;-0.470;2024-03-29T00:49:54;98104.97;;;7.06;42.03
39954;BME280;25631;51.516;-0.470;2024-03-29T00:52:30;98102.04;;;7.02;42.24
39954;BME280;25631;51.516;-0.470;2024-03-29T00:55:07;98103.47;;;6.78;42.36
39954;BME280;25631;51.516;-0.470;2024-03-29T00:57:44;98107.69;;;6.97;42.58
39954;BME280;25631;51.516;-0.470;2024-03-29T01:00:20;98110.03;;;6.94;42.63
39954;BME280;25631;51.516;-0.470;2024-03-29T01:02:57;98110.23;;;6.76;42.74
39954;BME280;25631;51.516;-0.470;2024-03-29T01:05:33;98110.68;;;6.72;42.86
39954;BME280;25631;51.516;-0.470;2024-03-29T01:08:10;98111.04;;;6.92;42.64
39954;BME280;25631;51.516;-0.470;2024-03-29T01:10:46;98112.46;;;6.82;42.61
39954;BME280;25631;51.516;-0.470;2024-03-29T01:13:22;98115.61;;;6.66;42.57
39954;BME280;25631;51.516;-0.470;2024-03-29T01:15:59;98123.36;;;6.78;42.39
39954;BME280;25631;51.516;-0.470;2024-03-29T01:18:36;98118.69;;;7.13;42.08
39954;BME280;25631;51.516;-0.470;2024-03-29T01:21:13;98118.42;;;7.18;41.97
39954;BME280;25631;51.516;-0.470;2024-03-29T01:23:49;98112.97;;;7.02;41.82
39954;BME280;25631;51.516;-0.470;2024-03-29T01:26:26;98111.94;;;6.66;41.49
39954;BME280;25631;51.516;-0.470;2024-03-29T01:29:02;98120.79;;;6.36;41.60
39954;BME280;25631;51.516;-0.470;2024-03-29T01:31:39;98119.56;;;6.50;41.54
39954;BME280;25631;51.516;-0.470;2024-03-29T01:34:15;98121.34;;;6.82;41.55
39954;BME280;25631;51.516;-0.470;2024-03-29T01:36:51;98121.01;;;6.25;41.97
39954;BME280;25631;51.516;-0.470;2024-03-29T01:39:28;98122.76;;;6.53;42.10
39954;BME280;25631;51.516;-0.470;2024-03-29T01:42:04;98119.55;;;6.88;42.12
39954;BME280;25631;51.516;-0.470;2024-03-29T01:44:41;98130.18;;;6.76;42.14
39954;BME280;25631;51.516;-0.470;2024-03-29T01:47:18;98135.67;;;6.21;42.19
39954;BME280;25631;51.516;-0.470;2024-03-29T01:49:55;98142.19;;;6.49;42.24
39954;BME280;25631;51.516;-0.470;2024-03-29T01:52:32;98135.09;;;6.84;42.19
39954;BME280;25631;51.516;-0.470;2024-03-29T01:55:08;98138.53;;;6.33;42.01
39954;BME280;25631;51.516;-0.470;2024-03-29T01:57:45;98139.44;;;6.38;42.11
39954;BME280;25631;51.516;-0.470;2024-03-29T02:00:21;98142.02;;;6.33;42.07
39954;BME280;25631;51.516;-0.470;2024-03-29T02:02:59;98143.52;;;6.45;42.16
39954;BME280;25631;51.516;-0.470;2024-03-29T02:05:36;98140.63;;;6.51;42.24
39954;BME280;25631;51.516;-0.470;2024-03-29T02:08:12;98138.66;;;6.71;42.13
39954;BME280;25631;51.516;-0.470;2024-03-29T02:10:49;98141.25;;;6.46;42.34
39954;BME280;25631;51.516;-0.470;2024-03-29T02:13:26;98136.47;;;6.29;42.33
39954;BME280;25631;51.516;-0.470;2024-03-29T02:16:02;98146.11;;;6.70;42.48
39954;BME280;25631;51.516;-0.470;2024-03-29T02:18:39;98156.55;;;6.97;42.37
39954;BME280;25631;51.516;-0.470;2024-03-29T02:21:15;98160.71;;;6.76;42.26
39954;BME280;25631;51.516;-0.470;2024-03-29T02:24:00;98165.09;;;6.72;42.27
39954;BME280;25631;51.516;-0.470;2024-03-29T02:26:36;98164.72;;;6.87;42.14
39954;BME280;25631;51.516;-0.470;2024-03-29T02:29:12;98164.90;;;6.71;42.41
39954;BME280;25631;51.516;-0.470;2024-03-29T02:31:49;98163.85;;;6.86;42.36
39954;BME280;25631;51.516;-0.470;2024-03-29T02:34:25;98165.45;;;6.73;42.30
39954;BME280;25631;51.516;-0.470;2024-03-29T02:37:03;98164.34;;;6.77;42.28
39954;BME280;25631;51.516;-0.470;2024-03-29T02:39:40;98163.81;;;6.91;42.18
39954;BME280;25631;51.516;-0.470;2024-03-29T02:42:16;98164.93;;;6.89;42.17
39954;BME280;25631;51.516;-0.470;2024-03-29T02:44:52;98169.92;;;6.94;42.34
39954;BME280;25631;51.516;-0.470;2024-03-29T02:47:29;98171.94;;;6.79;42.35
39954;BME280;25631;51.516;-0.470;2024-03-29T02:50:08;98171.10;;;6.80;42.36
39954;BME280;25631;51.516;-0.470;2024-03-29T02:52:45;98172.62;;;6.84;42.36
39954;BME280;25631;51.516;-0.470;2024-03-29T02:55:21;98173.52;;;6.96;42.27
39954;BME280;25631;51.516;-0.470;2024-03-29T02:57:58;98175.57;;;7.12;42.25
39954;BME280;25631;51.516;-0.470;2024-03-29T03:00:34;98169.29;;;7.11;42.26
39954;BME280;25631;51.516;-0.470;2024-03-29T03:03:13;98166.82;;;6.95;42.24
39954;BME280;25631;51.516;-0.470;2024-03-29T03:05:50;98166.02;;;7.02;42.25
39954;BME280;25631;51.516;-0.470;2024-03-29T03:08:27;98173.16;;;6.91;42.28
39954;BME280;25631;51.516;-0.470;2024-03-29T03:11:04;98178.79;;;6.92;42.37
39954;BME280;25631;51.516;-0.470;2024-03-29T03:13:41;98185.07;;;7.42;42.35
39954;BME280;25631;51.516;-0.470;2024-03-29T03:16:17;98191.87;;;6.83;42.32
39954;BME280;25631;51.516;-0.470;2024-03-29T03:18:54;98192.31;;;6.68;42.34
39954;BME280;25631;51.516;-0.470;2024-03-29T03:21:30;98189.16;;;6.91;42.22
39954;BME280;25631;51.516;-0.470;2024-03-29T03:24:07;98187.58;;;7.06;42.17
39954;BME280;25631;51.516;-0.470;2024-03-29T03:26:43;98193.83;;;6.77;42.15
39954;BME280;25631;51.516;-0.470;2024-03-29T03:29:20;98196.18;;;7.05;42.11
39954;BME280;25631;51.516;-0.470;2024-03-29T03:31:56;98199.55;;;7.09;42.12
39954;BME280;25631;51.516;-0.470;2024-03-29T03:34:33;98203.87;;;6.96;42.22
39954;BME280;25631;51.516;-0.470;2024-03-29T03:37:10;98204.92;;;7.16;42.12
39954;BME280;25631;51.516;-0.470;2024-03-29T03:39:46;98207.90;;;7.22;42.17
39954;BME280;25631;51.516;-0.470;2024-03-29T03:42:22;98207.20;;;7.11;42.35
39954;BME280;25631;51.516;-0.470;2024-03-29T03:44:59;98207.61;;;6.91;42.49
39954;BME280;25631;51.516;-0.470;2024-03-29T03:47:35;98209.51;;;6.98;42.66
39954;BME280;25631;51.516;-0.470;2024-03-29T03:50:12;98214.71;;;6.73;42.81
39954;BME280;25631;51.516;-0.470;2024-03-29T03:52:48;98217.84;;;6.74;42.76
39954;BME280;25631;51.516;-0.470;2024-03-29T03:55:24;98216.25;;;6.69;42.89
39954;BME280;25631;51.516;-0.470;2024-03-29T03:58:01;98214.39;;;6.59;42.93
39954;BME280;25631;51.516;-0.470;2024-03-29T04:00:37;98216.20;;;6.67;43.03
39954;BME280;25631;51.516;-0.470;2024-03-29T04:03:14;98213.13;;;6.99;43.01
39954;BME280;25631;51.516;-0.470;2024-03-29T04:05:50;98209.54;;;6.70;43.15
39954;BME280;25631;51.516;-0.470;2024-03-29T04:08:26;98210.02;;;6.79;43.11
39954;BME280;25631;51.516;-0.470;2024-03-29T04:11:03;98202.01;;;6.65;43.21
39954;BME280;25631;51.516;-0.470;2024-03-29T04:13:42;98207.37;;;6.93;43.02
39954;BME280;25631;51.516;-0.470;2024-03-29T04:16:18;98212.12;;;6.58;43.24
39954;BME280;25631;51.516;-0.470;2024-03-29T04:18:55;98217.09;;;7.09;43.18
39954;BME280;25631;51.516;-0.470;2024-03-29T04:21:31;98225.30;;;6.43;43.29
39954;BME280;25631;51.516;-0.470;2024-03-29T04:24:08;98225.90;;;6.74;43.38
39954;BME280;25631;51.516;-0.470;2024-03-29T04:26:44;98227.87;;;6.04;43.60
39954;BME280;25631;51.516;-0.470;2024-03-29T04:29:20;98222.72;;;6.42;43.74
39954;BME280;25631;51.516;-0.470;2024-03-29T04:31:56;98213.88;;;6.43;43.92
39954;BME280;25631;51.516;-0.470;2024-03-29T04:34:33;98205.24;;;6.14;43.86
39954;BME280;25631;51.516;-0.470;2024-03-29T04:37:10;98217.01;;;6.48;43.55
39954;BME280;25631;51.516;-0.470;2024-03-29T04:39:46;98224.52;;;6.27;43.52
39954;BME280;25631;51.516;-0.470;2024-03-29T04:42:23;98226.50;;;6.29;43.43
39954;BME280;25631;51.516;-0.470;2024-03-29T04:44:59;98227.09;;;6.36;43.42
39954;BME280;25631;51.516;-0.470;2024-03-29T04:47:36;98230.62;;;6.23;43.44
39954;BME280;25631;51.516;-0.470;2024-03-29T04:50:12;98229.01;;;6.45;43.36
39954;BME280;25631;51.516;-0.470;2024-03-29T04:52:49;98229.90;;;6.60;43.48
39954;BME280;25631;51.516;-0.470;2024-03-29T04:55:26;98242.04;;;6.52;43.62
39954;BME280;25631;51.516;-0.470;2024-03-29T04:58:02;98240.57;;;6.54;43.54
39954;BME280;25631;51.516;-0.470;2024-03-29T05:00:41;98236.68;;;6.11;43.53
39954;BME280;25631;51.516;-0.470;2024-03-29T05:03:19;98239.23;;;6.75;43.49
39954;BME280;25631;51.516;-0.470;2024-03-29T05:05:56;98239.43;;;6.16;43.46
39954;BME280;25631;51.516;-0.470;2024-03-29T05:08:33;98238.34;;;6.64;43.29
39954;BME280;25631;51.516;-0.470;2024-03-29T05:11:09;98242.84;;;6.51;43.43
39954;BME280;25631;51.516;-0.470;2024-03-29T05:13:47;98246.97;;;6.55;43.41
39954;BME280;25631;51.516;-0.470;2024-03-29T05:16:23;98245.94;;;6.74;43.43
39954;BME280;25631;51.516;-0.470;2024-03-29T05:18:59;98250.73;;;6.56;43.43
39954;BME280;25631;51.516;-0.470;2024-03-29T05:21:36;98250.75;;;6.63;43.35
39954;BME280;25631;51.516;-0.470;2024-03-29T05:24:12;98254.98;;;6.81;43.26
39954;BME280;25631;51.516;-0.470;2024-03-29T05:26:49;98254.56;;;6.55;43.31
39954;BME280;25631;51.516;-0.470;2024-03-29T05:29:25;98260.34;;;6.83;43.49
39954;BME280;25631;51.516;-0.470;2024-03-29T05:32:01;98254.54;;;6.63;43.52
39954;BME280;25631;51.516;-0.470;2024-03-29T05:34:38;98252.07;;;6.40;43.57
39954;BME280;25631;51.516;-0.470;2024-03-29T05:37:14;98249.97;;;6.46;43.45
39954;BME280;25631;51.516;-0.470;2024-03-29T05:39:51;98249.25;;;6.40;43.50
39954;BME280;25631;51.516;-0.470;2024-03-29T05:42:28;98250.30;;;6.52;43.32
39954;BME280;25631;51.516;-0.470;2024-03-29T05:45:22;98251.27;;;6.66;43.38
39954;BME280;25631;51.516;-0.470;2024-03-29T05:47:59;98259.08;;;6.39;43.41
39954;BME280;25631;51.516;-0.470;2024-03-29T05:50:35;98263.03;;;6.37;43.50
39954;BME280;25631;51.516;-0.470;2024-03-29T05:53:12;98266.81;;;6.76;43.64
39954;BME280;25631;51.516;-0.470;2024-03-29T05:55:48;98269.24;;;6.62;43.68
39954;BME280;25631;51.516;-0.470;2024-03-29T05:58:24;98268.14;;;6.57;43.74
39954;BME280;25631;51.516;-0.470;2024-03-29T06:01:01;98268.31;;;6.47;43.67
39954;BME280;25631;51.516;-0.470;2024-03-29T06:03:37;98271.83;;;6.53;43.49
39954;BME280;25631;51.516;-0.470;2024-03-29T06:06:13;98273.04;;;6.83;43.38
39954;BME280;25631;51.516;-0.470;2024-03-29T06:08:50;98274.32;;;6.40;43.32
39954;BME280;25631;51.516;-0.470;2024-03-29T06:11:26;98271.96;;;6.46;43.49
39954;BME280;25631;51.516;-0.470;2024-03-29T06:14:03;98272.32;;;6.53;43.42
39954;BME280;25631;51.516;-0.470;2024-03-29T06:16:39;98271.08;;;6.48;43.50
39954;BME280;25631;51.516;-0.470;2024-03-29T06:19:15;98271.07;;;6.54;43.49
39954;BME280;25631;51.516;-0.470;2024-03-29T06:21:52;98274.16;;;6.80;43.52
39954;BME280;25631;51.516;-0.470;2024-03-29T06:24:28;98273.20;;;7.07;43.45
39954;BME280;25631;51.516;-0.470;2024-03-29T06:27:05;98275.91;;;6.75;43.53
39954;BME280;25631;51.516;-0.470;2024-03-29T06:29:41;98270.52;;;6.63;43.66
39954;BME280;25631;51.516;-0.470;2024-03-29T06:32:18;98271.68;;;6.49;43.81
39954;BME280;25631;51.516;-0.470;2024-03-29T06:34:54;98265.87;;;6.23;43.92
39954;BME280;25631;51.516;-0.470;2024-03-29T06:37:30;98272.68;;;6.19;43.90
39954;BME280;25631;51.516;-0.470;2024-03-29T06:40:08;98272.15;;;6.39;43.95
39954;BME280;25631;51.516;-0.470;2024-03-29T06:42:44;98277.46;;;6.25;43.86
39954;BME280;25631;51.516;-0.470;2024-03-29T06:45:21;98289.23;;;6.42;43.89
39954;BME280;25631;51.516;-0.470;2024-03-29T06:47:57;98286.71;;;6.53;44.00
39954;BME280;25631;51.516;-0.470;2024-03-29T06:50:34;98288.81;;;6.36;44.03
39954;BME280;25631;51.516;-0.470;2024-03-29T06:53:11;98291.32;;;6.41;44.02
39954;BME280;25631;51.516;-0.470;2024-03-29T06:55:48;98284.28;;;6.07;44.12
39954;BME280;25631;51.516;-0.470;2024-03-29T06:58:25;98287.99;;;6.33;44.21
39954;BME280;25631;51.516;-0.470;2024-03-29T07:01:01;98283.28;;;6.26;44.18
39954;BME280;25631;51.516;-0.470;2024-03-29T07:03:37;98281.85;;;6.25;44.23
39954;BME280;25631;51.516;-0.470;2024-03-29T07:06:14;98287.31;;;6.98;43.98
39954;BME280;25631;51.516;-0.470;2024-03-29T07:08:50;98287.63;;;6.89;43.79
39954;BME280;25631;51.516;-0.470;2024-03-29T07:11:27;98289.91;;;6.53;43.95
39954;BME280;25631;51.516;-0.470;2024-03-29T07:14:03;98285.57;;;6.93;44.05
39954;BME280;25631;51.516;-0.470;2024-03-29T07:16:39;98290.42;;;6.49;44.04
39954;BME280;25631;51.516;-0.470;2024-03-29T07:19:16;98295.97;;;6.67;44.12
39954;BME280;25631;51.516;-0.470;2024-03-29T07:21:52;98298.11;;;6.68;44.02
39954;BME280;25631;51.516;-0.470;2024-03-29T07:24:28;98293.17;;;6.57;43.74
39954;BME280;25631;51.516;-0.470;2024-03-29T07:27:05;98299.80;;;6.68;43.81
39954;BME280;25631;51.516;-0.470;2024-03-29T07:29:41;98310.00;;;6.57;43.52
39954;BME280;25631;51.516;-0.470;2024-03-29T07:32:18;98311.68;;;6.51;43.39
39954;BME280;25631;51.516;-0.470;2024-03-29T07:34:54;98304.36;;;6.57;43.43
39954;BME280;25631;51.516;-0.470;2024-03-29T07:37:31;98311.05;;;6.90;43.39
39954;BME280;25631;51.516;-0.470;2024-03-29T07:40:08;98309.02;;;6.76;43.30
39954;BME280;25631;51.516;-0.470;2024-03-29T07:42:45;98313.44;;;6.60;43.34
39954;BME280;25631;51.516;-0.470;2024-03-29T07:45:21;98317.63;;;6.78;43.28
39954;BME280;25631;51.516;-0.470;2024-03-29T07:47:58;98314.92;;;7.18;43.02
39954;BME280;25631;51.516;-0.470;2024-03-29T07:50:34;98317.93;;;7.19;42.92
39954;BME280;25631;51.516;-0.470;2024-03-29T07:53:11;98315.57;;;7.10;42.84
39954;BME280;25631;51.516;-0.470;2024-03-29T07:55:50;98316.16;;;7.26;42.87
39954;BME280;25631;51.516;-0.470;2024-03-29T07:58:26;98311.13;;;7.12;42.84
39954;BME280;25631;51.516;-0.470;2024-03-29T08:01:03;98313.77;;;7.31;42.80
39954;BME280;25631;51.516;-0.470;2024-03-29T08:03:39;98314.77;;;7.44;42.62
39954;BME280;25631;51.516;-0.470;2024-03-29T08:06:15;98316.06;;;7.39;42.76
39954;BME280;25631;51.516;-0.470;2024-03-29T08:08:52;98315.74;;;7.57;42.52
39954;BME280;25631;51.516;-0.470;2024-03-29T08:11:28;98318.68;;;7.38;42.57
39954;BME280;25631;51.516;-0.470;2024-03-29T08:14:04;98324.80;;;7.33;42.69
39954;BME280;25631;51.516;-0.470;2024-03-29T08:16:47;98321.34;;;7.28;42.39
39954;BME280;25631;51.516;-0.470;2024-03-29T08:19:24;98323.79;;;7.22;42.19
39954;BME280;25631;51.516;-0.470;2024-03-29T08:22:00;98326.45;;;7.48;42.40
39954;BME280;25631;51.516;-0.470;2024-03-29T08:24:37;98325.83;;;7.34;42.42
39954;BME280;25631;51.516;-0.470;2024-03-29T08:27:13;98325.73;;;7.52;42.35
39954;BME280;25631;51.516;-0.470;2024-03-29T08:29:50;98337.13;;;7.46;42.55
39954;BME280;25631;51.516;-0.470;2024-03-29T08:32:26;98333.25;;;7.60;42.79
39954;BME280;25631;51.516;-0.470;2024-03-29T08:35:03;98336.90;;;7.62;42.62
39954;BME280;25631;51.516;-0.470;2024-03-29T08:37:40;98340.16;;;7.55;42.49
39954;BME280;25631;51.516;-0.470;2024-03-29T08:40:16;98341.25;;;7.58;42.31
39954;BME280;25631;51.516;-0.470;2024-03-29T08:42:53;98350.67;;;7.81;42.20
39954;BME280;25631;51.516;-0.470;2024-03-29T08:45:29;98341.39;;;7.82;41.87
39954;BME280;25631;51.516;-0.470;2024-03-29T08:48:07;98345.98;;;7.92;42.06
39954;BME280;25631;51.516;-0.470;2024-03-29T08:50:43;98346.25;;;7.75;41.99
39954;BME280;25631;51.516;-0.470;2024-03-29T08:53:20;98350.81;;;8.34;41.84
39954;BME280;25631;51.516;-0.470;2024-03-29T08:55:56;98355.75;;;7.63;41.79
39954;BME280;25631;51.516;-0.470;2024-03-29T08:58:33;98353.77;;;7.83;41.82
39954;BME280;25631;51.516;-0.470;2024-03-29T09:01:12;98364.62;;;7.80;41.68
39954;BME280;25631;51.516;-0.470;2024-03-29T09:03:48;98372.13;;;7.75;41.76
39954;BME280;25631;51.516;-0.470;2024-03-29T09:06:24;98379.04;;;7.80;42.12
39954;BME280;25631;51.516;-0.470;2024-03-29T09:09:02;98383.15;;;7.87;42.67
39954;BME280;25631;51.516;-0.470;2024-03-29T09:11:38;98378.51;;;7.85;42.74
39954;BME280;25631;51.516;-0.470;2024-03-29T09:14:15;98382.43;;;7.99;42.87
39954;BME280;25631;51.516;-0.470;2024-03-29T09:16:51;98390.05;;;8.25;43.10
39954;BME280;25631;51.516;-0.470;2024-03-29T09:19:28;98385.28;;;7.77;42.73
39954;BME280;25631;51.516;-0.470;2024-03-29T09:22:04;98386.77;;;8.08;42.75
39954;BME280;25631;51.516;-0.470;2024-03-29T09:24:41;98393.85;;;8.38;42.78
39954;BME280;25631;51.516;-0.470;2024-03-29T09:27:17;98396.36;;;7.99;43.14
39954;BME280;25631;51.516;-0.470;2024-03-29T09:29:55;98398.60;;;8.24;43.25
39954;BME280;25631;51.516;-0.470;2024-03-29T09:32:31;98399.16;;;8.19;43.24
39954;BME280;25631;51.516;-0.470;2024-03-29T09:35:08;98405.43;;;7.85;43.28
39954;BME280;25631;51.516;-0.470;2024-03-29T09:37:44;98407.27;;;8.05;43.38
39954;BME280;25631;51.516;-0.470;2024-03-29T09:40:21;98403.91;;;8.06;43.94
39954;BME280;25631;51.516;-0.470;2024-03-29T09:43:00;98406.94;;;8.24;44.31
39954;BME280;25631;51.516;-0.470;2024-03-29T09:45:37;98406.21;;;8.17;44.65
39954;BME280;25631;51.516;-0.470;2024-03-29T09:48:15;98413.54;;;7.99;44.75
39954;BME280;25631;51.516;-0.470;2024-03-29T09:50:52;98412.62;;;8.35;44.72
39954;BME280;25631;51.516;-0.470;2024-03-29T09:53:30;98416.25;;;8.25;44.86
39954;BME280;25631;51.516;-0.470;2024-03-29T09:56:08;98419.37;;;8.46;44.74
39954;BME280;25631;51.516;-0.470;2024-03-29T09:58:44;98423.83;;;8.10;44.99
39954;BME280;25631;51.516;-0.470;2024-03-29T10:01:21;98422.91;;;8.14;45.30
39954;BME280;25631;51.516;-0.470;2024-03-29T10:04:00;98418.98;;;8.38;45.44
39954;BME280;25631;51.516;-0.470;2024-03-29T10:06:38;98419.08;;;7.90;45.49
39954;BME280;25631;51.516;-0.470;2024-03-29T10:09:17;98422.93;;;8.16;45.71
39954;BME280;25631;51.516;-0.470;2024-03-29T10:11:53;98425.17;;;8.29;45.30
39954;BME280;25631;51.516;-0.470;2024-03-29T10:14:30;98425.74;;;8.46;45.42
39954;BME280;25631;51.516;-0.470;2024-03-29T10:17:07;98416.46;;;8.59;45.12
39954;BME280;25631;51.516;-0.470;2024-03-29T10:19:43;98422.24;;;8.27;44.85
39954;BME280;25631;51.516;-0.470;2024-03-29T10:22:20;98422.57;;;7.97;44.80
39954;BME280;25631;51.516;-0.470;2024-03-29T10:24:57;98418.25;;;8.16;44.97
39954;BME280;25631;51.516;-0.470;2024-03-29T10:27:33;98422.83;;;8.06;45.33
39954;BME280;25631;51.516;-0.470;2024-03-29T10:30:11;98426.81;;;8.25;45.58
39954;BME280;25631;51.516;-0.470;2024-03-29T10:32:47;98420.52;;;8.07;45.95
39954;BME280;25631;51.516;-0.470;2024-03-29T10:35:25;98419.71;;;8.31;45.87
39954;BME280;25631;51.516;-0.470;2024-03-29T10:38:03;98418.64;;;8.52;45.55
39954;BME280;25631;51.516;-0.470;2024-03-29T10:40:40;98424.78;;;8.77;45.38
39954;BME280;25631;51.516;-0.470;2024-03-29T10:43:17;98432.30;;;8.55;45.03
39954;BME280;25631;51.516;-0.470;2024-03-29T10:45:55;98430.49;;;8.76;45.12
39954;BME280;25631;51.516;-0.470;2024-03-29T10:48:32;98434.16;;;8.73;45.26
39954;BME280;25631;51.516;-0.470;2024-03-29T10:51:10;98435.74;;;8.74;44.94
39954;BME280;25631;51.516;-0.470;2024-03-29T10:53:48;98434.98;;;8.56;44.79
39954;BME280;25631;51.516;-0.470;2024-03-29T10:56:25;98423.15;;;8.96;43.81
39954;BME280;25631;51.516;-0.470;2024-03-29T10:59:10;98428.37;;;9.15;43.83
39954;BME280;25631;51.516;-0.470;2024-03-29T11:01:52;98432.75;;;8.57;44.08
39954;BME280;25631;51.516;-0.470;2024-03-29T11:04:33;98438.01;;;8.68;43.09
39954;BME280;25631;51.516;-0.470;2024-03-29T11:07:18;98442.39;;;8.96;42.96
39954;BME280;25631;51.516;-0.470;2024-03-29T11:09:59;98437.68;;;9.45;43.00
39954;BME280;25631;51.516;-0.470;2024-03-29T11:12:45;98439.65;;;9.80;42.80
39954;BME280;25631;51.516;-0.470;2024-03-29T11:15:28;98436.00;;;9.33;41.46
39954;BME280;25631;51.516;-0.470;2024-03-29T11:18:06;98438.84;;;9.63;41.64
39954;BME280;25631;51.516;-0.470;2024-03-29T11:20:44;98444.97;;;9.45;41.08
39954;BME280;25631;51.516;-0.470;2024-03-29T11:23:22;98443.08;;;9.45;40.81
39954;BME280;25631;51.516;-0.470;2024-03-29T11:25:59;98446.18;;;9.39;40.88
39954;BME280;25631;51.516;-0.470;2024-03-29T11:28:36;98442.80;;;9.66;40.90
39954;BME280;25631;51.516;-0.470;2024-03-29T11:31:14;98451.94;;;9.87;41.34
39954;BME280;25631;51.516;-0.470;2024-03-29T11:33:51;98445.35;;;9.80;40.46
39954;BME280;25631;51.516;-0.470;2024-03-29T11:36:29;98449.24;;;9.61;40.28
39954;BME280;25631;51.516;-0.470;2024-03-29T11:39:05;98453.75;;;9.67;40.24
39954;BME280;25631;51.516;-0.470;2024-03-29T11:41:47;98450.82;;;9.58;40.29
39954;BME280;25631;51.516;-0.470;2024-03-29T11:44:24;98449.48;;;9.23;40.21
39954;BME280;25631;51.516;-0.470;2024-03-29T11:47:01;98450.98;;;9.64;40.11
39954;BME280;25631;51.516;-0.470;2024-03-29T11:49:39;98463.13;;;9.40;40.15
39954;BME280;25631;51.516;-0.470;2024-03-29T11:52:18;98456.90;;;9.70;40.20
39954;BME280;25631;51.516;-0.470;2024-03-29T11:54:54;98463.69;;;9.86;40.30
39954;BME280;25631;51.516;-0.470;2024-03-29T11:57:31;98466.61;;;9.98;39.92
39954;BME280;25631;51.516;-0.470;2024-03-29T12:00:08;98467.70;;;10.34;39.10
39954;BME280;25631;51.516;-0.470;2024-03-29T12:02:45;98467.09;;;10.36;38.93
39954;BME280;25631;51.516;-0.470;2024-03-29T12:05:21;98471.95;;;10.02;37.90
39954;BME280;25631;51.516;-0.470;2024-03-29T12:07:58;98476.64;;;10.14;38.66
39954;BME280;25631;51.516;-0.470;2024-03-29T12:10:35;98472.12;;;10.38;38.26
39954;BME280;25631;51.516;-0.470;2024-03-29T12:13:13;98469.48;;;10.05;37.78
39954;BME280;25631;51.516;-0.470;2024-03-29T12:15:50;98468.16;;;10.70;37.89
39954;BME280;25631;51.516;-0.470;2024-03-29T12:18:27;98467.56;;;11.07;37.48
39954;BME280;25631;51.516;-0.470;2024-03-29T12:21:04;98467.48;;;10.82;37.13
39954;BME280;25631;51.516;-0.470;2024-03-29T12:23:47;98467.77;;;10.76;36.48
39954;BME280;25631;51.516;-0.470;2024-03-29T12:26:23;98472.69;;;10.84;36.05
39954;BME280;25631;51.516;-0.470;2024-03-29T12:29:01;98472.40;;;10.99;35.45
39954;BME280;25631;51.516;-0.470;2024-03-29T12:31:38;98470.10;;;11.04;35.54
39954;BME280;25631;51.516;-0.470;2024-03-29T12:34:21;98475.49;;;10.64;34.61
39954;BME280;25631;51.516;-0.470;2024-03-29T12:36:58;98488.39;;;10.73;34.76
39954;BME280;25631;51.516;-0.470;2024-03-29T12:39:35;98490.59;;;11.39;34.89
39954;BME280;25631;51.516;-0.470;2024-03-29T12:42:11;98494.61;;;10.68;35.09
39954;BME280;25631;51.516;-0.470;2024-03-29T12:44:48;98498.78;;;10.58;34.90
39954;BME280;25631;51.516;-0.470;2024-03-29T12:47:24;98494.67;;;10.99;35.68
39954;BME280;25631;51.516;-0.470;2024-03-29T12:50:02;98488.48;;;10.83;35.40
39954;BME280;25631;51.516;-0.470;2024-03-29T12:52:40;98492.73;;;10.71;35.02
39954;BME280;25631;51.516;-0.470;2024-03-29T12:55:17;98486.08;;;10.75;35.03
39954;BME280;25631;51.516;-0.470;2024-03-29T12:57:54;98496.24;;;11.29;35.30
39954;BME280;25631;51.516;-0.470;2024-03-29T13:00:31;98492.27;;;11.39;35.36
39954;BME280;25631;51.516;-0.470;2024-03-29T13:03:08;98499.74;;;11.31;33.98
39954;BME280;25631;51.516;-0.470;2024-03-29T13:05:44;98505.28;;;11.46;34.03
39954;BME280;25631;51.516;-0.470;2024-03-29T13:08:21;98509.87;;;11.74;34.03
39954;BME280;25631;51.516;-0.470;2024-03-29T13:10:57;98507.45;;;11.40;34.09
39954;BME280;25631;51.516;-0.470;2024-03-29T13:13:33;98501.47;;;11.48;33.58
39954;BME280;25631;51.516;-0.470;2024-03-29T13:16:10;98507.48;;;11.30;33.96
39954;BME280;25631;51.516;-0.470;2024-03-29T13:18:46;98507.47;;;11.71;33.37
39954;BME280;25631;51.516;-0.470;2024-03-29T13:21:23;98513.14;;;11.84;33.75
39954;BME280;25631;51.516;-0.470;2024-03-29T13:23:59;98516.87;;;11.79;33.86
39954;BME280;25631;51.516;-0.470;2024-03-29T13:26:35;98512.21;;;12.32;33.62
39954;BME280;25631;51.516;-0.470;2024-03-29T13:29:12;98516.47;;;12.55;32.90
39954;BME280;25631;51.516;-0.470;2024-03-29T13:31:48;98510.41;;;12.31;31.81
39954;BME280;25631;51.516;-0.470;2024-03-29T13:34:24;98511.40;;;12.56;32.40
39954;BME280;25631;51.516;-0.470;2024-03-29T13:37:01;98507.44;;;12.74;32.26
39954;BME280;25631;51.516;-0.470;2024-03-29T13:39:37;98505.34;;;12.80;32.40
39954;BME280;25631;51.516;-0.470;2024-03-29T13:42:14;98506.44;;;13.36;32.04
39954;BME280;25631;51.516;-0.470;2024-03-29T13:44:50;98517.47;;;13.23;30.66
39954;BME280;25631;51.516;-0.470;2024-03-29T13:47:27;98514.96;;;13.28;30.72
39954;BME280;25631;51.516;-0.470;2024-03-29T13:50:04;98520.70;;;13.39;30.86